FW2442 Weather Reports


Display with metric or nautical units.
time (UTC)temp
F
wind
direction
speed
MPH
gust
MPH
rain 1hr
in
rain 24hr
in
rain mn
in
humidity
%
barometer
mb
20191016204032 54 0.0 0.0 0.00 0.01 0.01 88 1014.9
20191016203027 55 0.0 0.0 0.00 0.01 0.01 86 1014.9
20191016202026 55 104 1.0 2.0 0.00 0.01 0.01 88 1014.7
20191016201027 55 110 2.0 3.0 0.00 0.01 0.01 88 1014.4
20191016200024 55 100 2.0 3.0 0.00 0.01 0.01 88 1014.7
20191016195020 55 116 2.0 3.0 0.00 0.01 0.01 87 1015.2
20191016194033 55 194 0.0 2.0 0.00 0.01 0.01 86 1014.7
20191016193023 55 123 1.0 2.0 0.00 0.01 0.01 86 1015.3
20191016192027 56 116 1.0 2.0 0.00 0.01 0.01 85 1014.5
20191016191029 56 120 1.0 2.0 0.00 0.01 0.01 83 1015.0
20191016190022 56 113 2.0 2.0 0.00 0.01 0.01 83 1014.6
20191016185036 56 101 2.0 2.0 0.00 0.01 0.01 83 1014.5
20191016184029 56 116 1.0 2.0 0.00 0.01 0.01 83 1014.2
20191016183019 56 105 0.0 1.0 0.00 0.01 0.01 83 1014.5
20191016182019 56 122 1.0 2.0 0.00 0.01 0.01 83 1014.6
20191016181034 56 0.0 0.0 0.00 0.01 0.01 83 1014.6
20191016180029 55 120 0.0 1.0 0.00 0.01 0.01 83 1014.4
20191016175029 55 0.0 0.0 0.00 0.01 0.01 81 1014.6
20191016174027 56 0.0 0.0 0.00 0.01 0.01 80 1014.5
20191016173021 57 0.0 0.0 0.00 0.01 0.01 78 1014.0
20191016172026 57 152 1.0 1.0 0.00 0.01 0.01 77 1014.0
20191016171020 57 127 1.0 2.0 0.00 0.01 0.01 75 1014.2
20191016170018 58 158 0.0 1.0 0.00 0.01 0.01 74 1014.3
20191016165031 58 150 1.0 2.0 0.00 0.01 0.01 73 1014.3
20191016164032 58 130 1.0 3.0 0.00 0.01 0.01 71 1014.7
20191016163021 59 115 1.0 2.0 0.00 0.01 0.01 70 1014.0
20191016162027 60 131 1.0 2.0 0.00 0.01 0.01 69 1014.1
20191016161025 60 119 1.0 2.0 0.00 0.01 0.01 67 1013.9
20191016160021 61 111 2.0 3.0 0.00 0.01 0.01 66 1014.1
20191016155021 62 125 1.0 4.0 0.00 0.01 0.01 65 1013.7
20191016154019 63 110 2.0 3.0 0.00 0.01 0.01 63 1013.6
20191016153021 64 112 2.0 3.0 0.00 0.01 0.01 61 1013.8
20191016152027 66 148 0.0 1.0 0.00 0.01 0.01 59 1013.4
20191016151030 67 135 1.0 2.0 0.00 0.01 0.01 56 1013.4
20191016150020 69 119 1.0 3.0 0.00 0.01 0.01 55 1013.1
20191016145026 69 167 2.0 5.0 0.00 0.01 0.01 55 1013.2
20191016144024 70 164 3.0 5.0 0.00 0.01 0.01 53 1013.2
20191016143026 71 156 4.0 6.0 0.00 0.01 0.01 50 1012.8
20191016142019 72 163 3.0 6.0 0.00 0.01 0.01 50 1012.8
20191016141018 72 144 4.0 5.0 0.00 0.01 0.01 47 1013.0
20191016140020 72 171 4.0 8.0 0.00 0.01 0.01 47 1013.4
20191016135027 72 171 4.0 6.0 0.00 0.01 0.01 48 1013.3
20191016134029 73 170 5.0 7.0 0.00 0.01 0.01 46 1013.3
20191016133020 74 151 4.0 7.0 0.00 0.01 0.01 46 1013.3
20191016132026 74 158 4.0 6.0 0.00 0.01 0.01 51 1013.4
20191016131023 73 172 6.0 9.0 0.00 0.01 0.01 50 1013.4
20191016130019 73 171 5.0 7.0 0.00 0.01 0.01 49 1013.2
20191016125018 74 116 3.0 5.0 0.00 0.01 0.01 53 1013.5
20191016124041 73 151 5.0 7.0 0.00 0.01 0.01 50 1013.5
20191016123020 74 94 4.0 6.0 0.00 0.01 0.01 53 1013.9
20191016122026 72 160 6.0 9.0 0.00 0.01 0.01 50 1013.8
20191016121028 72 181 5.0 8.0 0.00 0.01 0.01 52 1013.8
20191016120019 72 171 7.0 9.0 0.00 0.01 0.01 53 1014.1
20191016115024 71 202 6.0 8.0 0.00 0.01 0.01 54 1014.0
20191016114020 72 184 5.0 6.0 0.00 0.01 0.01 55 1013.8
20191016113028 71 177 6.0 10.0 0.00 0.01 0.01 56 1014.6
20191016112018 71 199 6.0 8.0 0.00 0.01 0.01 57 1014.6
20191016111036 71 176 4.0 6.0 0.00 0.01 0.01 58 1014.2
20191016111032 71 176 4.0 6.0 0.00 0.01 0.01 59 1014.2
20191016110017 70 199 6.0 9.0 0.00 0.01 0.01 59 1014.7
20191016105024 70 178 3.0 4.0 0.00 0.01 0.01 61 1015.0
20191016104026 69 182 5.0 6.0 0.00 0.01 0.01 63 1015.2
20191016103018 69 144 5.0 6.0 0.00 0.01 0.01 63 1015.1
20191016102025 68 179 4.0 7.0 0.00 0.01 0.01 65 1015.4
20191016101020 67 171 4.0 6.0 0.00 0.01 0.01 66 1014.9
20191016100017 66 168 4.0 6.0 0.00 0.01 0.01 67 1015.5
20191016095028 65 194 5.0 9.0 0.00 0.01 0.01 70 1015.5
20191016094032 65 169 5.0 7.0 0.00 0.01 0.01 70 1015.5
20191016093019 65 196 5.0 7.0 0.00 0.01 0.01 71 1016.1
20191016092024 64 184 6.0 8.0 0.00 0.01 0.01 73 1016.0
20191016091026 63 189 6.0 9.0 0.00 0.01 0.01 73 1016.3
20191016090017 63 178 6.0 9.0 0.00 0.01 0.01 72 1016.2
20191016085027 63 175 5.0 8.0 0.00 0.01 0.01 71 1016.3
20191016084019 63 166 4.0 7.0 0.00 0.01 0.01 71 1016.5
20191016083034 63 174 5.0 8.0 0.00 0.01 0.01 74 1016.7
20191016082026 62 167 5.0 7.0 0.00 0.01 0.01 75 1016.4
20191016081028 62 147 4.0 5.0 0.00 0.01 0.01 75 1016.9
20191016080032 63 116 3.0 6.0 0.00 0.01 0.01 74 1016.5
20191016075022 61 180 2.0 5.0 0.00 0.01 0.01 80 1016.3
20191016074026 61 186 4.0 5.0 0.00 0.01 0.01 81 1016.6
20191016073022 61 156 3.0 5.0 0.00 0.01 0.01 81 1016.7
20191016072022 59 164 4.0 6.0 0.00 0.01 0.01 83 1017.0
20191016071019 59 151 4.0 7.0 0.00 0.01 0.01 85 1016.8
20191016070037 58 152 4.0 7.0 0.00 0.01 0.01 86 1016.5
20191016065023 58 147 3.0 6.0 0.00 0.01 0.01 87 1016.8
20191016064027 57 129 3.0 7.0 0.00 0.01 0.01 89 1016.7
20191016063027 56 173 2.0 4.0 0.00 0.01 0.01 90 1017.0
20191016062022 56 126 3.0 6.0 0.00 0.01 0.01 91 1016.6
20191016061030 55 120 3.0 5.0 0.00 0.01 0.01 94 1017.2
20191016060023 54 121 3.0 5.0 0.00 0.01 0.01 96 1016.6
20191016055018 53 110 3.0 4.0 0.00 0.01 0.01 98 1016.2
20191016054027 52 109 3.0 5.0 0.00 0.01 0.01 98 1016.0
20191016053032 51 113 2.0 4.0 0.00 0.01 0.01 98 1016.3
20191016052021 50 149 1.0 2.0 0.00 0.01 0.01 98 1016.5
20191016051028 48 135 0.0 1.0 0.00 0.01 0.01 98 1016.7
20191016050026 48 136 0.0 1.0 0.00 0.01 0.01 98 1016.2
20191016045021 48 106 2.0 3.0 0.00 0.01 0.01 98 1015.8
20191016044022 49 117 2.0 3.0 0.00 0.01 0.01 98 1016.2
20191016043023 49 110 1.0 3.0 0.00 0.01 0.01 98 1015.7
20191016042032 49 111 1.0 2.0 0.00 0.01 0.01 98 1015.6
20191016041027 49 126 1.0 2.0 0.00 0.01 0.01 98 1015.6
20191016040032 49 0.0 0.0 0.01 0.01 0.01 98 1016.2
20191016035022 50 0.0 1.0 0.01 0.01 0.01 98 1015.9
20191016034026 50 113 0.0 1.0 0.01 0.01 0.01 98 1015.3
20191016033024 51 155 1.0 2.0 0.01 0.01 0.01 98 1016.1
20191016032022 51 177 2.0 4.0 0.01 0.01 0.01 98 1016.5
20191016031023 50 153 2.0 3.0 0.01 0.01 0.01 98 1016.1
20191016030018 50 111 2.0 3.0 0.00 0.00 0.00 98 1016.3
20191016025023 50 147 2.0 3.0 0.00 0.00 0.00 98 1016.3
20191016024029 50 169 1.0 3.0 0.00 0.00 0.00 98 1015.9
20191016023037 49 122 1.0 2.0 0.00 0.00 0.00 98 1016.6
20191016022021 48 141 1.0 3.0 0.00 0.00 0.00 98 1015.9
20191016021024 49 135 0.0 1.0 0.00 0.00 0.00 98 1015.7
20191016020023 49 124 1.0 2.0 0.00 0.00 0.00 98 1015.5
20191016015020 49 164 1.0 2.0 0.00 0.00 0.00 98 1015.8
20191016014018 50 153 1.0 2.0 0.00 0.00 0.00 98 1016.0
20191016013034 50 139 1.0 3.0 0.00 0.00 0.00 98 1015.6
20191016012021 50 130 2.0 3.0 0.00 0.00 0.00 98 1015.6
20191016011027 51 131 2.0 4.0 0.00 0.00 0.00 98 1015.9
20191016010029 51 96 3.0 5.0 0.00 0.00 0.00 98 1015.5
20191016005022 51 127 3.0 4.0 0.00 0.00 0.00 98 1015.8
20191016004024 51 137 2.0 3.0 0.00 0.00 0.00 98 1015.9
20191016003026 51 127 2.0 4.0 0.00 0.00 0.00 98 1015.7
20191016002019 51 123 2.0 4.0 0.00 0.00 0.00 98 1015.5
20191016001017 51 104 2.0 4.0 0.00 0.00 0.00 98 1015.7
20191016000032 51 115 3.0 4.0 0.00 0.00 0.00 98 1015.3
20191015235020 51 107 3.0 5.0 0.00 0.00 0.00 98 1015.6
20191015234026 51 105 3.0 4.0 0.00 0.00 0.00 98 1015.4
20191015233027 51 106 4.0 6.0 0.00 0.00 0.00 98 1015.7
20191015232021 51 113 4.0 5.0 0.00 0.00 0.00 98 1015.9
20191015231022 51 98 4.0 6.0 0.00 0.00 0.00 98 1016.0
20191015230020 51 105 4.0 5.0 0.00 0.00 0.00 98 1015.7
20191015225018 51 121 4.0 5.0 0.00 0.00 0.00 98 1015.6
20191015224025 51 115 3.0 4.0 0.00 0.00 0.00 98 1015.6
20191015223033 51 93 2.0 4.0 0.00 0.00 0.00 98 1015.4
20191015222020 51 123 2.0 5.0 0.00 0.00 0.00 98 1015.3
20191015221034 52 99 2.0 3.0 0.00 0.00 0.00 98 1015.6
20191015220026 52 115 2.0 3.0 0.00 0.00 0.00 98 1015.9
20191015215019 52 114 3.0 4.0 0.00 0.00 0.00 98 1016.1
20191015214021 52 100 3.0 4.0 0.00 0.00 0.00 98 1015.8
20191015213022 52 107 4.0 6.0 0.00 0.00 0.00 98 1015.8
20191015212020 52 106 3.0 5.0 0.00 0.00 0.00 98 1015.6
20191015211025 52 105 3.0 4.0 0.00 0.00 0.00 98 1016.0
20191015210035 52 123 1.0 2.0 0.00 0.00 0.00 98 1015.7
20191015205019 52 117 1.0 2.0 0.00 0.00 0.00 98 1015.8